Terminal Aerodrome Forecast
Issued by NWS Upton, NY

Home | Current Version | Previous Version | Text Only | Print | Product List | Glossary On
Versions: 1 2 3 4 5 6 7 8 9 10 11 12 13 14 15 16 17 18 19 20 21 22 23 24 25 26 27 28 29
000
FTUS41 KOKX 260800 AAA
TAFISP
TAF AMD
KISP 260830Z 2609/2706 02009KT P6SM SCT025 BKN100
     FM261200 04012KT 4SM -RA BKN015 OVC025
     FM261600 03016G23KT 4SM -RA OVC009
     FM261800 01021G31KT 1SM RASN OVC004
      TEMPO 2618/2622 +RASN
     FM262200 01025G35KT 1SM -SNRA OVC004
     FM270200 33018G25KT 6SM -RASN OVC030=

USA.gov is the U.S. government's official web portal to all federal, state and local government web resources and services.